createdAt,value
2018-11-26T00:01:35.290Z,18.50
2018-11-26T00:04:04.002Z,18.83
2018-11-26T00:06:45.493Z,17.60
2018-11-26T00:09:13.993Z,18.13
2018-11-26T00:11:42.855Z,18.23
2018-11-26T00:14:11.361Z,18.53
2018-11-26T00:16:39.885Z,18.07
2018-11-26T00:19:08.313Z,19.00
2018-11-26T00:21:36.831Z,18.13
2018-11-26T00:31:03.708Z,17.67
2018-11-26T00:33:39.370Z,18.30
2018-11-26T00:36:07.851Z,18.70
2018-11-26T00:40:56.583Z,17.40
2018-11-26T00:43:25.073Z,18.30
2018-11-26T00:45:53.488Z,17.27
2018-11-26T00:48:21.916Z,16.83
2018-11-26T00:50:52.164Z,17.47
2018-11-26T00:53:20.636Z,17.43
2018-11-26T00:55:49.127Z,17.07
2018-11-26T00:58:17.600Z,17.67
2018-11-26T01:00:46.101Z,16.97
2018-11-26T01:03:14.579Z,16.10
2018-11-26T01:05:46.128Z,17.10
2018-11-26T01:08:16.245Z,16.97
2018-11-26T01:10:44.667Z,17.90
2018-11-26T01:13:13.217Z,17.00
2018-11-26T01:15:41.670Z,15.90
2018-11-26T01:18:10.167Z,16.30
2018-11-26T01:20:38.660Z,16.07
2018-11-26T01:23:07.128Z,17.10
2018-11-26T01:25:35.578Z,17.40
2018-11-26T01:28:04.107Z,16.30
2018-11-26T01:30:32.577Z,13.97
2018-11-26T01:33:01.065Z,16.00
2018-11-26T01:35:29.537Z,15.57
2018-11-26T01:37:58.034Z,15.00
2018-11-26T01:40:32.080Z,15.43
2018-11-26T01:43:00.724Z,15.00
2018-11-26T01:45:29.138Z,15.13
2018-11-26T01:47:57.677Z,15.10
2018-11-26T01:50:26.152Z,16.03
2018-11-26T01:52:54.616Z,13.80
2018-11-26T01:55:23.113Z,15.87
2018-11-26T01:57:51.525Z,16.27
2018-11-26T02:00:21.295Z,15.77
2018-11-26T02:02:49.700Z,14.23
2018-11-26T02:05:18.269Z,16.50
2018-11-26T02:07:46.687Z,14.80
2018-11-26T02:10:16.613Z,15.07
2018-11-26T02:12:45.140Z,15.03
2018-11-26T02:15:45.257Z,15.73
2018-11-26T02:18:13.842Z,14.47
2018-11-26T02:20:42.249Z,14.40
2018-11-26T02:23:10.812Z,14.13
2018-11-26T02:25:39.375Z,14.77
2018-11-26T02:28:07.988Z,13.90
2018-11-26T02:30:36.503Z,13.40
2018-11-26T02:33:10.263Z,14.47
2018-11-26T02:35:40.179Z,13.10
2018-11-26T02:38:08.651Z,14.03
2018-11-26T02:40:37.094Z,13.43
2018-11-26T02:43:05.623Z,13.33
2018-11-26T02:45:34.064Z,14.20
2018-11-26T02:48:02.593Z,13.80
2018-11-26T02:50:31.963Z,14.17
2018-11-26T02:53:00.569Z,13.67
2018-11-26T02:55:29.075Z,13.13
2018-11-26T02:57:57.524Z,12.03
2018-11-26T03:00:25.964Z,13.67
2018-11-26T03:02:54.492Z,13.80
2018-11-26T03:05:27.176Z,12.60
2018-11-26T03:07:55.775Z,13.33
2018-11-26T03:10:24.259Z,13.23
2018-11-26T03:12:52.953Z,13.30
2018-11-26T03:15:22.239Z,12.70
2018-11-26T03:17:52.135Z,12.63
2018-11-26T03:20:20.617Z,12.97
2018-11-26T03:22:49.114Z,12.20
2018-11-26T03:25:17.590Z,11.23
2018-11-26T03:27:46.072Z,12.53
2018-11-26T03:30:18.422Z,13.23
2018-11-26T03:32:46.856Z,11.97
2018-11-26T03:35:15.413Z,11.20
2018-11-26T03:37:43.845Z,12.47
2018-11-26T03:40:13.244Z,12.40
2018-11-26T03:42:42.162Z,11.83
2018-11-26T03:45:13.706Z,11.77
2018-11-26T03:47:42.146Z,12.57
2018-11-26T03:50:21.641Z,12.37
2018-11-26T03:52:52.195Z,11.20
2018-11-26T03:55:20.647Z,11.30
2018-11-26T03:57:49.133Z,11.97
2018-11-26T04:00:17.730Z,12.53
2018-11-26T04:02:46.298Z,10.87
2018-11-26T04:05:14.781Z,11.40
2018-11-26T04:07:43.192Z,12.03
2018-11-26T04:10:12.703Z,11.47
2018-11-26T04:12:41.288Z,13.40
2018-11-26T04:15:11.164Z,12.10
2018-11-26T04:17:39.655Z,12.10
2018-11-26T04:20:08.913Z,12.40
2018-11-26T04:22:37.382Z,12.50
2018-11-26T04:25:07.009Z,10.23
2018-11-26T04:27:35.687Z,11.80
2018-11-26T04:30:04.995Z,12.23
2018-11-26T04:32:40.054Z,11.73
2018-11-26T04:35:08.708Z,11.47
2018-11-26T04:37:37.324Z,11.23
2018-11-26T04:40:08.145Z,10.70
2018-11-26T04:42:40.221Z,11.53
2018-11-26T04:45:09.758Z,10.73
2018-11-26T04:47:38.273Z,11.80
2018-11-26T04:50:10.260Z,11.37
2018-11-26T04:52:39.025Z,11.33
2018-11-26T04:55:08.539Z,11.60
2018-11-26T04:57:42.115Z,11.60
2018-11-26T05:00:07.896Z,11.03
2018-11-26T05:02:36.478Z,11.43
2018-11-26T05:05:11.245Z,10.53
2018-11-26T05:07:39.791Z,12.40
2018-11-26T05:10:09.680Z,11.67
2018-11-26T05:12:38.176Z,11.20
2018-11-26T05:15:08.180Z,11.53
2018-11-26T05:17:40.279Z,11.23
2018-11-26T05:20:12.516Z,10.90
2018-11-26T05:22:41.141Z,10.80
2018-11-26T05:25:10.430Z,10.57
2018-11-26T05:27:38.893Z,11.23
2018-11-26T05:30:11.366Z,11.47
2018-11-26T05:32:39.948Z,11.10
2018-11-26T05:35:09.737Z,12.17
2018-11-26T05:37:38.339Z,11.20
2018-11-26T05:40:09.473Z,10.53
2018-11-26T05:42:37.891Z,11.73
2018-11-26T05:45:09.941Z,11.30
2018-11-26T05:47:38.400Z,11.30
2018-11-26T05:50:09.452Z,11.00
2018-11-26T05:52:40.866Z,10.87
2018-11-26T05:55:13.992Z,11.80
2018-11-26T05:57:42.446Z,10.60
2018-11-26T06:00:25.112Z,11.07
2018-11-26T06:02:53.682Z,10.90
2018-11-26T06:05:22.169Z,11.60
2018-11-26T06:07:57.786Z,10.63
2018-11-26T06:10:26.295Z,9.50
2018-11-26T06:12:54.728Z,11.40
2018-11-26T06:15:23.281Z,10.67
2018-11-26T06:17:52.333Z,11.47
2018-11-26T06:20:20.745Z,10.20
2018-11-26T06:22:49.304Z,11.03
2018-11-26T06:25:19.804Z,10.37
2018-11-26T06:27:48.611Z,10.70
2018-11-26T06:30:18.309Z,9.93
2018-11-26T06:32:46.716Z,11.73
2018-11-26T06:35:16.408Z,11.67
2018-11-26T06:37:44.900Z,9.70
2018-11-26T06:40:13.860Z,10.23
2018-11-26T06:42:42.506Z,10.53
2018-11-26T06:45:25.581Z,10.50
2018-11-26T06:47:58.309Z,11.73
2018-11-26T06:50:26.744Z,10.77
2018-11-26T06:52:55.163Z,10.73
2018-11-26T06:55:23.720Z,9.90
2018-11-26T06:57:52.221Z,10.57
2018-11-26T07:00:22.336Z,9.83
2018-11-26T07:02:50.774Z,10.00
2018-11-26T07:05:20.217Z,11.57
2018-11-26T07:07:48.816Z,10.27
2018-11-26T07:10:17.911Z,10.03
2018-11-26T07:12:46.364Z,10.60
2018-11-26T07:15:15.862Z,10.10
2018-11-26T07:17:44.320Z,11.27
2018-11-26T07:20:17.523Z,11.30
2018-11-26T07:22:46.103Z,10.37
2018-11-26T07:25:18.245Z,11.40
2018-11-26T07:27:53.717Z,10.93
2018-11-26T07:30:24.451Z,11.73
2018-11-26T07:33:01.404Z,10.40
2018-11-26T07:35:30.427Z,9.77
2018-11-26T07:37:59.031Z,11.17
2018-11-26T07:40:27.471Z,10.20
2018-11-26T07:43:03.248Z,10.27
2018-11-26T07:45:31.857Z,10.73
2018-11-26T07:48:00.350Z,11.17
2018-11-26T07:50:28.826Z,10.63
2018-11-26T07:52:57.275Z,11.83
2018-11-26T07:55:25.780Z,10.50
2018-11-26T07:57:54.252Z,10.50
2018-11-26T08:00:23.029Z,10.07
2018-11-26T08:02:51.901Z,10.00
2018-11-26T08:05:22.418Z,10.00
2018-11-26T08:07:51.040Z,9.67
2018-11-26T08:10:21.576Z,11.10
2018-11-26T08:12:52.443Z,10.30
2018-11-26T08:15:23.681Z,10.67
2018-11-26T08:17:52.095Z,9.87
2018-11-26T08:20:20.617Z,10.07
2018-11-26T08:22:49.104Z,10.50
2018-11-26T08:25:19.147Z,9.63
2018-11-26T08:27:48.282Z,10.27
2018-11-26T08:30:20.867Z,11.47
2018-11-26T08:32:52.542Z,11.40
2018-11-26T08:35:21.148Z,10.10
2018-11-26T08:38:01.749Z,10.43
2018-11-26T08:40:39.831Z,10.33
2018-11-26T08:43:13.939Z,10.37
2018-11-26T08:45:49.583Z,10.23
2018-11-26T08:48:23.531Z,10.60
2018-11-26T08:50:52.174Z,11.17
2018-11-26T08:53:20.664Z,11.10
2018-11-26T08:55:52.500Z,10.40
2018-11-26T08:58:21.087Z,10.50
2018-11-26T09:00:54.928Z,10.70
2018-11-26T09:03:23.408Z,10.93
2018-11-26T09:06:00.213Z,9.67
2018-11-26T09:08:29.928Z,11.20
2018-11-26T09:10:58.422Z,11.30
2018-11-26T09:13:26.853Z,9.90
2018-11-26T09:15:55.398Z,10.50
2018-11-26T09:18:23.915Z,11.80
2018-11-26T09:20:52.383Z,9.93
2018-11-26T09:25:57.284Z,11.00
2018-11-26T09:28:25.801Z,9.90
2018-11-26T09:30:54.227Z,10.17
2018-11-26T09:33:22.776Z,11.03
2018-11-26T09:35:51.249Z,10.67
2018-11-26T09:38:27.932Z,10.70
2018-11-26T09:40:56.383Z,10.80
2018-11-26T09:43:24.880Z,10.80
2018-11-26T09:45:53.296Z,10.20
2018-11-26T09:48:21.845Z,11.67
2018-11-26T09:50:50.310Z,12.27
2018-11-26T09:53:18.740Z,12.23
2018-11-26T09:55:47.295Z,11.87
2018-11-26T09:58:15.749Z,11.67
2018-11-26T10:00:44.237Z,12.20
2018-11-26T10:03:12.719Z,12.13
2018-11-26T10:05:41.188Z,11.47
2018-11-26T10:08:09.678Z,11.50
2018-11-26T10:10:38.105Z,11.30
2018-11-26T10:13:07.162Z,11.60
2018-11-26T10:15:35.724Z,11.67
2018-11-26T10:18:04.188Z,10.73
2018-11-26T10:20:34.540Z,10.83
2018-11-26T10:23:03.032Z,11.40
2018-11-26T10:25:31.462Z,10.70
2018-11-26T10:28:04.521Z,12.20
2018-11-26T10:30:32.961Z,11.80
2018-11-26T10:33:01.444Z,11.70
2018-11-26T10:35:29.901Z,11.37
2018-11-26T10:37:58.441Z,10.83
2018-11-26T10:40:27.721Z,12.17
2018-11-26T10:42:56.500Z,11.03
2018-11-26T10:45:28.603Z,10.43
2018-11-26T10:47:57.022Z,12.13
2018-11-26T10:50:26.616Z,11.80
2018-11-26T10:53:06.502Z,11.90
2018-11-26T10:55:36.151Z,11.40
2018-11-26T10:58:10.535Z,12.57
2018-11-26T11:00:40.311Z,12.30
2018-11-26T11:03:15.871Z,11.67
2018-11-26T11:05:46.443Z,12.40
2018-11-26T11:08:14.884Z,11.47
2018-11-26T11:10:43.389Z,12.57
2018-11-26T11:13:11.808Z,12.50
2018-11-26T11:15:40.360Z,11.90
2018-11-26T11:18:08.845Z,12.63
2018-11-26T11:20:37.403Z,12.70
2018-11-26T11:23:07.010Z,13.70
2018-11-26T11:25:35.526Z,11.60
2018-11-26T11:28:04.214Z,12.20
2018-11-26T11:30:32.697Z,12.23
2018-11-26T11:35:28.846Z,12.30
2018-11-26T11:37:57.517Z,12.20
2018-11-26T11:40:30.065Z,11.50
2018-11-26T11:42:59.348Z,11.87
2018-11-26T11:45:28.561Z,11.90
2018-11-26T11:47:57.160Z,12.03
2018-11-26T11:50:25.645Z,12.40
2018-11-26T11:52:58.617Z,13.23
2018-11-26T11:55:28.560Z,13.03
2018-11-26T11:57:57.014Z,12.70
2018-11-26T12:00:37.325Z,12.17
2018-11-26T12:03:11.365Z,12.60
2018-11-26T12:05:39.877Z,13.70
2018-11-26T12:08:08.746Z,12.80
2018-11-26T12:10:37.172Z,12.90
2018-11-26T12:13:06.934Z,12.80
2018-11-26T12:15:42.007Z,12.40
2018-11-26T12:18:11.265Z,12.30
2018-11-26T12:20:39.793Z,12.53
2018-11-26T12:23:08.485Z,12.57
2018-11-26T12:25:37.147Z,13.40
2018-11-26T12:28:10.529Z,13.00
2018-11-26T12:30:40.564Z,13.10
2018-11-26T12:33:09.166Z,13.93
2018-11-26T12:35:37.863Z,14.17
2018-11-26T12:38:10.465Z,13.67
2018-11-26T12:40:40.528Z,12.70
2018-11-26T12:43:09.025Z,13.77
2018-11-26T12:45:37.481Z,13.20
2018-11-26T12:48:05.956Z,14.27
2018-11-26T12:50:34.497Z,13.00
2018-11-26T12:53:03.157Z,13.30
2018-11-26T12:55:31.841Z,12.93
2018-11-26T12:58:00.529Z,14.33
2018-11-26T13:00:29.576Z,14.60
2018-11-26T13:03:01.559Z,13.50
2018-11-26T13:05:30.081Z,12.63
2018-11-26T13:08:04.695Z,13.30
2018-11-26T13:10:33.145Z,12.80
2018-11-26T13:13:01.654Z,13.70
2018-11-26T13:15:30.178Z,13.90
2018-11-26T13:17:58.793Z,13.60
2018-11-26T13:20:28.346Z,14.00
2018-11-26T13:22:57.033Z,13.80
2018-11-26T13:25:34.654Z,14.00
2018-11-26T13:28:03.785Z,12.27
2018-11-26T13:30:37.757Z,14.53
2018-11-26T13:33:09.641Z,13.07
2018-11-26T13:35:38.707Z,13.73
2018-11-26T13:38:08.270Z,13.77
2018-11-26T13:40:36.839Z,14.20
2018-11-26T13:43:07.855Z,14.40
2018-11-26T13:45:43.742Z,13.43
2018-11-26T13:48:13.730Z,14.07
2018-11-26T13:50:48.181Z,13.20
2018-11-26T13:53:16.736Z,13.30
2018-11-26T13:55:45.318Z,13.67
2018-11-26T13:58:13.824Z,14.53
2018-11-26T14:00:42.294Z,13.10
2018-11-26T14:03:10.766Z,13.70
2018-11-26T14:05:39.225Z,13.73
2018-11-26T14:08:07.728Z,14.53
2018-11-26T14:10:36.155Z,13.30
2018-11-26T14:13:09.178Z,14.53
2018-11-26T14:15:37.693Z,15.57
2018-11-26T14:18:06.212Z,16.70
2018-11-26T14:20:34.880Z,16.80
2018-11-26T14:23:04.792Z,16.07
2018-11-26T14:25:33.510Z,15.80
2018-11-26T14:28:02.138Z,15.30
2018-11-26T14:30:30.787Z,16.67
2018-11-26T14:32:59.345Z,14.70
2018-11-26T14:35:28.022Z,15.67
2018-11-26T14:37:59.865Z,15.30
2018-11-26T14:40:36.121Z,16.00
2018-11-26T14:43:04.759Z,15.13
2018-11-26T14:45:33.400Z,15.67
2018-11-26T14:48:01.902Z,14.90
2018-11-26T14:50:30.360Z,14.70
2018-11-26T14:52:58.849Z,15.60
2018-11-26T14:55:28.944Z,14.40
2018-11-26T14:57:58.565Z,14.70
2018-11-26T15:00:27.138Z,14.97
2018-11-26T15:02:55.601Z,14.30
2018-11-26T15:05:24.109Z,15.30
2018-11-26T15:07:52.538Z,15.67
2018-11-26T15:10:23.060Z,14.80
2018-11-26T15:12:51.689Z,15.27
2018-11-26T15:15:21.989Z,14.60
2018-11-26T15:17:50.518Z,15.90
2018-11-26T15:20:24.461Z,15.17
2018-11-26T15:22:54.191Z,14.97
2018-11-26T15:25:24.922Z,14.93
2018-11-26T15:28:01.278Z,14.50
2018-11-26T15:30:34.709Z,15.43
2018-11-26T15:33:03.179Z,16.07
2018-11-26T15:35:31.665Z,14.80
2018-11-26T15:38:00.164Z,15.83
2018-11-26T15:40:28.637Z,15.67
2018-11-26T15:42:57.065Z,16.30
2018-11-26T15:45:27.078Z,15.77
2018-11-26T15:48:05.317Z,16.13
2018-11-26T15:50:33.840Z,15.40
2018-11-26T15:53:02.304Z,14.87
2018-11-26T15:55:30.741Z,14.57
2018-11-26T15:58:05.293Z,14.60
2018-11-26T16:00:33.898Z,15.00
2018-11-26T16:03:02.394Z,15.17
2018-11-26T16:05:31.775Z,15.67
2018-11-26T16:09:32.256Z,16.13
2018-11-26T16:12:00.826Z,15.23
2018-11-26T16:14:34.809Z,15.17
2018-11-26T16:17:03.325Z,15.23
2018-11-26T16:19:31.769Z,16.20
2018-11-26T16:22:00.248Z,14.63
2018-11-26T16:24:28.717Z,14.37
2018-11-26T16:26:58.665Z,15.63
2018-11-26T16:29:27.411Z,14.57
2018-11-26T16:31:58.693Z,15.90
2018-11-26T16:34:27.159Z,14.40
2018-11-26T16:36:55.670Z,15.03
2018-11-26T16:40:48.752Z,15.30
2018-11-26T16:43:17.015Z,15.50
2018-11-26T16:45:46.700Z,14.33
2018-11-26T16:48:15.169Z,14.80
2018-11-26T16:50:43.646Z,14.10
2018-11-26T16:57:58.444Z,14.60
2018-11-26T17:00:28.057Z,15.13
2018-11-26T17:02:57.852Z,14.63
2018-11-26T17:05:27.866Z,14.30
2018-11-26T17:07:56.474Z,14.70
2018-11-26T17:10:28.869Z,13.80
2018-11-26T17:12:57.324Z,14.67
2018-11-26T17:15:25.790Z,14.00
2018-11-26T17:17:54.270Z,13.47
2018-11-26T17:20:22.782Z,14.10
2018-11-26T17:22:51.227Z,14.27
2018-11-26T17:25:19.718Z,13.80
2018-11-26T17:27:48.136Z,15.60
2018-11-26T17:30:20.926Z,14.10
2018-11-26T17:32:50.998Z,14.60
2018-11-26T17:35:19.577Z,15.13
2018-11-26T17:37:48.093Z,15.57
2018-11-26T17:40:17.766Z,14.23
2018-11-26T17:42:46.298Z,14.60
2018-11-26T17:45:15.518Z,14.70
2018-11-26T17:47:53.067Z,14.50
2018-11-26T17:50:23.569Z,14.83
2018-11-26T17:52:52.075Z,15.10
2018-11-26T17:55:20.550Z,14.20
2018-11-26T17:57:52.710Z,15.80
2018-11-26T18:00:22.929Z,14.10
2018-11-26T18:02:51.516Z,14.50
2018-11-26T18:05:22.129Z,14.80
2018-11-26T18:08:22.669Z,14.80
2018-11-26T18:10:51.512Z,14.30
2018-11-26T18:13:20.070Z,13.47
2018-11-26T18:15:48.553Z,13.70
2018-11-26T18:18:18.430Z,13.90
2018-11-26T18:20:47.608Z,14.40
2018-11-26T18:23:16.861Z,16.27
2018-11-26T18:25:52.310Z,14.87
2018-11-26T18:28:20.761Z,15.63
2018-11-26T18:30:50.469Z,14.50
2018-11-26T18:33:18.985Z,14.83
2018-11-26T18:35:48.391Z,14.33
2018-11-26T18:38:17.171Z,13.77
2018-11-26T18:40:47.153Z,14.17
2018-11-26T18:43:15.739Z,15.00
2018-11-26T18:45:44.248Z,14.17
2018-11-26T18:48:14.018Z,13.57
2018-11-26T18:50:42.641Z,13.40
2018-11-26T18:53:11.098Z,13.60
2018-11-26T18:55:40.422Z,13.50
2018-11-26T18:58:10.729Z,12.47
2018-11-26T19:00:42.026Z,13.93
2018-11-26T19:03:10.579Z,14.10
2018-11-26T19:05:39.093Z,15.07
2018-11-26T19:08:07.721Z,13.23
2018-11-26T19:10:37.309Z,14.57
2018-11-26T19:13:21.161Z,13.97
2018-11-26T19:16:03.652Z,13.20
2018-11-26T19:18:32.137Z,13.10
2018-11-26T19:21:05.061Z,12.97
2018-11-26T19:23:33.665Z,12.70
2018-11-26T19:26:02.135Z,13.17
2018-11-26T19:28:30.559Z,13.40
2018-11-26T19:31:05.629Z,14.17
2018-11-26T19:33:34.154Z,12.60
2018-11-26T19:36:04.901Z,13.27
2018-11-26T19:38:34.748Z,13.57
2018-11-26T19:41:03.276Z,12.80
2018-11-26T19:43:31.714Z,13.53
2018-11-26T19:46:04.933Z,12.50
2018-11-26T19:48:34.824Z,13.63
2018-11-26T19:51:03.293Z,12.97
2018-11-26T19:53:31.782Z,13.43
2018-11-26T19:56:00.201Z,12.70
2018-11-26T19:58:28.744Z,11.97
2018-11-26T20:00:57.234Z,12.30
2018-11-26T20:03:30.398Z,13.07
2018-11-26T20:06:11.224Z,12.80
2018-11-26T20:08:40.293Z,12.93
2018-11-26T20:11:16.318Z,12.57
2018-11-26T20:13:44.875Z,12.13
2018-11-26T20:16:15.127Z,12.70
2018-11-26T20:18:43.633Z,12.87
2018-11-26T20:21:12.046Z,12.43
2018-11-26T20:23:40.582Z,11.93
2018-11-26T20:26:09.110Z,12.53
2018-11-26T20:28:37.537Z,13.77
2018-11-26T20:31:11.338Z,13.10
2018-11-26T20:33:40.855Z,13.40
2018-11-26T20:36:11.068Z,12.10
2018-11-26T20:38:39.664Z,12.30
2018-11-26T20:41:09.349Z,13.80
2018-11-26T20:43:40.938Z,11.97
2018-11-26T20:46:09.433Z,12.50
2018-11-26T20:48:37.895Z,12.73
2018-11-26T20:51:07.383Z,12.00
2018-11-26T20:53:35.825Z,11.60
2018-11-26T20:56:11.245Z,13.83
2018-11-26T20:58:39.809Z,11.97
2018-11-26T21:01:10.938Z,12.40
2018-11-26T21:03:39.437Z,12.03
2018-11-26T21:06:07.917Z,12.20
2018-11-26T21:08:36.394Z,11.37
2018-11-26T21:11:04.892Z,11.27
2018-11-26T21:13:33.366Z,11.17
2018-11-26T21:16:01.842Z,12.27
2018-11-26T21:18:30.328Z,12.63
2018-11-26T21:20:58.791Z,11.20
2018-11-26T21:23:31.599Z,10.73
2018-11-26T21:26:02.486Z,12.57
2018-11-26T21:28:30.915Z,11.73
2018-11-26T21:30:59.477Z,11.93
2018-11-26T21:33:27.954Z,11.13
2018-11-26T21:37:20.858Z,11.23
2018-11-26T21:39:53.018Z,11.10
2018-11-26T21:42:21.473Z,11.63
2018-11-26T21:44:49.917Z,12.27
2018-11-26T21:47:18.655Z,12.30
2018-11-26T21:49:47.143Z,12.70
2018-11-26T21:52:15.594Z,11.90
2018-11-26T21:54:44.080Z,11.30
2018-11-26T21:57:12.541Z,11.40
2018-11-26T21:59:41.064Z,11.40
2018-11-26T22:02:09.513Z,11.17
2018-11-26T22:04:38.010Z,11.30
2018-11-26T22:07:06.505Z,11.47
2018-11-26T22:09:34.980Z,11.37
2018-11-26T22:12:03.400Z,11.97
2018-11-26T22:14:34.996Z,10.67
2018-11-26T22:17:03.473Z,10.37
2018-11-26T22:19:31.954Z,11.00
2018-11-26T22:22:00.448Z,11.73
2018-11-26T22:24:28.918Z,11.07
2018-11-26T22:26:59.038Z,11.47
2018-11-26T22:29:27.520Z,12.20
2018-11-26T22:31:56.000Z,11.30
2018-11-26T22:34:24.439Z,11.40
2018-11-26T22:36:52.973Z,11.37
2018-11-26T22:39:21.437Z,9.70
2018-11-26T22:41:49.918Z,10.33
2018-11-26T22:44:18.395Z,10.93
2018-11-26T22:46:46.814Z,10.70
2018-11-26T22:49:15.364Z,10.97
2018-11-26T22:51:51.244Z,10.50
2018-11-26T22:54:15.613Z,10.47
2018-11-26T22:56:44.091Z,10.53
2018-11-26T22:59:12.577Z,10.73
2018-11-26T23:01:47.006Z,11.40
2018-11-26T23:04:15.481Z,11.00
2018-11-26T23:06:43.922Z,11.07
2018-11-26T23:09:12.426Z,11.80
2018-11-26T23:11:40.922Z,11.43
2018-11-26T23:14:09.380Z,10.27
2018-11-26T23:16:37.822Z,10.77
2018-11-26T23:19:06.642Z,11.77
2018-11-26T23:21:41.000Z,10.70
2018-11-26T23:24:10.931Z,11.43
2018-11-26T23:26:39.609Z,10.73
2018-11-26T23:29:08.293Z,10.87
2018-11-26T23:31:36.737Z,11.00
2018-11-26T23:34:05.286Z,10.17
2018-11-26T23:36:33.926Z,11.10
2018-11-26T23:39:02.361Z,10.30
2018-11-26T23:41:30.801Z,11.30
2018-11-26T23:44:05.093Z,10.90
2018-11-26T23:46:35.032Z,10.77
2018-11-26T23:49:03.473Z,10.47
2018-11-26T23:51:31.898Z,11.60
2018-11-26T23:54:00.437Z,10.63
2018-11-26T23:56:28.920Z,10.90
2018-11-26T23:58:57.369Z,10.40
